Time;durP1;ratioP1;P1;durP2;ratioP2;P2;SDS_P1;SDS_P2;PMS_P1;PMS_P2;Temp;Humidity;BMP_temperature;BMP_pressure;BME280_temperature;BME280_humidity;BME280_pressure;Samples;Min_cycle;Max_cycle;Signal;HPM_P1;HPM_P2
2021/11/04 00:00:11;;;;;;;9.40;3.53;;;;;;;5.41;81.69;101151.72;5046988;28;20037;-78
2021/11/04 00:02:38;;;;;;;5.22;2.72;;;;;;;5.40;81.89;101155.59;5058755;28;20041;-78
2021/11/04 00:05:07;;;;;;;10.02;2.40;;;;;;;5.37;81.96;101151.53;5058399;28;20083;-78
2021/11/04 00:07:34;;;;;;;6.72;2.28;;;;;;;5.35;81.68;101158.41;5044885;28;20095;-78
2021/11/04 00:10:01;;;;;;;14.23;4.45;;;;;;;5.33;81.70;101155.97;5058123;28;20042;-78
2021/11/04 00:12:28;;;;;;;9.77;2.42;;;;;;;5.29;81.74;101154.97;5042350;28;20135;-78
2021/11/04 00:14:55;;;;;;;10.90;2.90;;;;;;;5.27;82.01;101151.69;5047575;28;20109;-78
2021/11/04 00:17:22;;;;;;;4.97;1.95;;;;;;;5.26;81.96;101155.56;5066141;28;20478;-78
2021/11/04 00:19:49;;;;;;;7.38;2.00;;;;;;;5.25;81.93;101158.59;5065724;28;20153;-78
2021/11/04 00:22:16;;;;;;;6.18;1.73;;;;;;;5.24;82.18;101152.28;5066316;28;20123;-78
2021/11/04 00:24:43;;;;;;;8.15;1.50;;;;;;;5.24;81.93;101160.50;5046418;28;20583;-78
2021/11/04 00:27:09;;;;;;;4.60;1.88;;;;;;;5.25;81.67;101159.41;5045409;28;20067;-78
2021/11/04 00:29:36;;;;;;;5.53;2.00;;;;;;;5.24;81.60;101168.75;5046764;28;20124;-78
2021/11/04 00:32:04;;;;;;;4.78;1.42;;;;;;;5.25;81.80;101170.38;5056296;28;20520;-78
2021/11/04 00:34:31;;;;;;;4.55;1.30;;;;;;;5.25;81.83;101167.66;5060560;28;20071;-78
2021/11/04 00:36:58;;;;;;;11.77;2.05;;;;;;;5.25;81.76;101164.91;5057901;28;20055;-78
2021/11/04 00:39:25;;;;;;;6.15;1.67;;;;;;;5.25;81.92;101175.88;5063382;28;20453;-78
2021/11/04 00:41:52;;;;;;;5.00;1.80;;;;;;;5.25;81.94;101175.88;5057116;28;20139;-78
2021/11/04 00:44:19;;;;;;;6.78;1.27;;;;;;;5.24;81.93;101181.69;5063570;28;20131;-78
2021/11/04 00:46:45;;;;;;;4.90;1.70;;;;;;;5.21;81.62;101194.06;5063659;28;20032;-78
2021/11/04 00:49:12;;;;;;;4.72;1.75;;;;;;;5.21;81.86;101187.75;5059400;28;20072;-78
2021/11/04 00:51:43;;;;;;;5.72;1.85;;;;;;;5.17;81.72;101184.78;5060084;28;20072;-78
2021/11/04 00:54:10;;;;;;;5.85;1.40;;;;;;;5.14;81.90;101193.63;5064747;28;20117;-78
2021/11/04 00:56:37;;;;;;;7.80;1.60;;;;;;;5.13;82.17;101200.25;5045011;28;20197;-79
2021/11/04 00:59:03;;;;;;;5.07;1.60;;;;;;;5.14;81.93;101199.09;5049198;28;20071;-78
2021/11/04 01:01:31;;;;;;;6.20;1.67;;;;;;;5.11;81.92;101199.69;5063369;28;20036;-78
2021/11/04 01:03:57;;;;;;;2.20;1.23;;;;;;;5.10;81.97;101197.25;5046060;28;20045;-78
2021/11/04 01:06:24;;;;;;;6.68;1.55;;;;;;;5.08;81.83;101191.25;5064627;28;20135;-78
2021/11/04 01:08:52;;;;;;;5.72;1.48;;;;;;;5.04;81.82;101193.78;5037478;28;20420;-78
2021/11/04 01:11:19;;;;;;;9.30;2.55;;;;;;;5.02;82.07;101193.28;5055264;28;20048;-78
2021/11/04 01:13:46;;;;;;;4.45;1.85;;;;;;;5.04;81.93;101210.25;5062586;28;20120;-78
2021/11/04 01:16:13;;;;;;;6.43;1.88;;;;;;;5.03;82.04;101205.84;5058781;28;20054;-78
2021/11/04 01:18:40;;;;;;;4.57;1.60;;;;;;;5.04;81.83;101213.00;5043564;28;20076;-78
2021/11/04 01:21:08;;;;;;;5.18;1.40;;;;;;;5.03;81.95;101216.84;5065509;28;20044;-78
2021/11/04 01:23:34;;;;;;;6.43;1.60;;;;;;;5.03;81.99;101227.81;5062023;28;20072;-78
2021/11/04 01:26:02;;;;;;;9.82;1.90;;;;;;;5.02;82.13;101223.44;5061223;28;20047;-78
2021/11/04 01:28:29;;;;;;;5.53;1.20;;;;;;;5.01;82.36;101224.56;5046692;28;20127;-78
2021/11/04 01:30:55;;;;;;;10.70;1.73;;;;;;;5.02;82.77;101220.72;5058392;28;20111;-78
2021/11/04 01:33:22;;;;;;;7.10;1.63;;;;;;;5.02;82.40;101215.22;5043537;28;20040;-78
2021/11/04 01:35:49;;;;;;;4.20;1.50;;;;;;;5.04;82.62;101213.00;5053303;28;20048;-78
2021/11/04 01:38:18;;;;;;;5.35;1.25;;;;;;;5.04;82.41;101221.22;5038389;28;20059;-78
2021/11/04 01:40:45;;;;;;;4.65;1.52;;;;;;;5.04;82.30;101210.25;5055596;28;20492;-78
2021/11/04 01:43:12;;;;;;;7.50;1.58;;;;;;;5.04;82.35;101201.19;5061126;28;20139;-78
2021/11/04 01:45:39;;;;;;;5.20;1.42;;;;;;;5.05;82.62;101213.81;5045171;28;20068;-78
2021/11/04 01:48:06;;;;;;;7.85;1.08;;;;;;;5.03;82.39;101211.34;5043613;28;20052;-78
2021/11/04 01:50:34;;;;;;;3.92;1.40;;;;;;;5.01;82.53;101212.75;5058885;28;20041;-78
2021/11/04 01:53:01;;;;;;;5.38;1.63;;;;;;;5.00;82.86;101211.97;5059720;28;20071;-78
2021/11/04 01:55:28;;;;;;;4.60;1.38;;;;;;;5.00;82.48;101209.22;5029058;28;20132;-78
2021/11/04 01:57:56;;;;;;;3.42;1.92;;;;;;;4.98;82.98;101219.66;5056293;28;20071;-78
2021/11/04 02:00:27;;;;;;;5.03;1.30;;;;;;;4.97;82.94;101218.03;5038059;28;20128;-78
2021/11/04 02:03:19;;;;;;;5.75;1.45;;;;;;;4.95;83.11;101220.25;5045355;28;20042;-78
2021/11/04 02:05:55;;;;;;;4.15;1.10;;;;;;;4.92;83.15;101221.66;5038667;28;20131;-78
2021/11/04 02:09:04;;;;;;;4.57;1.50;;;;;;;4.88;83.45;101220.63;5044991;28;20450;-78
2021/11/04 02:11:42;;;;;;;6.13;1.38;;;;;;;4.85;83.17;101212.97;5042469;28;20068;-78
2021/11/04 02:14:24;;;;;;;4.22;1.38;;;;;;;4.85;83.24;101217.66;5038360;28;20485;-78
2021/11/04 02:16:53;;;;;;;11.88;1.58;;;;;;;4.85;83.27;101220.38;5043023;28;20450;-78
2021/11/04 02:19:39;;;;;;;4.28;1.60;;;;;;;4.82;83.29;101220.97;5056443;28;20078;-78
2021/11/04 02:22:12;;;;;;;8.15;1.40;;;;;;;4.81;83.00;101233.91;5062286;28;20045;-78
2021/11/04 02:24:48;;;;;;;5.18;1.45;;;;;;;4.81;82.93;101224.84;5060832;28;20496;-78
2021/11/04 02:27:15;;;;;;;7.43;1.30;;;;;;;4.79;83.09;101219.63;5053915;28;20131;-78
2021/11/04 02:29:44;;;;;;;6.75;1.90;;;;;;;4.77;83.44;101218.31;5055746;28;20119;-78
2021/11/04 02:32:12;;;;;;;5.97;1.65;;;;;;;4.73;83.37;101222.75;5059947;28;20744;-78
2021/11/04 02:34:41;;;;;;;2.08;1.27;;;;;;;4.74;83.52;101224.38;5061600;28;20411;-78
2021/11/04 02:37:09;;;;;;;7.57;1.55;;;;;;;4.71;83.50;101220.28;5043035;28;20459;-78
2021/11/04 02:39:36;;;;;;;7.68;1.30;;;;;;;4.70;83.63;101223.34;5059887;28;20128;-78
2021/11/04 02:42:05;;;;;;;4.22;1.17;;;;;;;4.68;83.41;101225.56;5040390;28;20159;-78
2021/11/04 02:44:34;;;;;;;3.63;1.08;;;;;;;4.68;83.68;101228.31;5035055;28;20078;-78
2021/11/04 02:47:00;;;;;;;6.30;1.27;;;;;;;4.69;83.45;101232.66;5056144;28;20036;-78
2021/11/04 02:49:27;;;;;;;2.92;1.20;;;;;;;4.71;83.50;101230.47;5052760;28;20041;-78
2021/11/04 02:51:54;;;;;;;5.43;2.15;;;;;;;4.71;84.01;101233.22;5045631;28;20040;-78
2021/11/04 02:54:21;;;;;;;5.10;1.52;;;;;;;4.68;83.85;101233.81;5062476;28;20036;-78
2021/11/04 02:56:53;;;;;;;6.35;1.98;;;;;;;4.67;83.90;101240.38;5063123;28;20132;-78
2021/11/04 02:59:23;;;;;;;5.65;1.25;;;;;;;4.68;83.93;101233.81;5061392;28;20075;-78
2021/11/04 03:01:57;;;;;;;5.88;1.20;;;;;;;4.70;83.73;101245.28;5039348;28;20131;-77
2021/11/04 03:04:24;;;;;;;6.13;1.13;;;;;;;4.71;84.04;101246.94;5041969;28;20139;-78
2021/11/04 03:06:52;;;;;;;4.07;1.10;;;;;;;4.71;83.81;101249.69;5062175;28;20060;-78
2021/11/04 03:09:20;;;;;;;1.80;0.70;;;;;;;4.70;84.19;101253.50;5060247;28;20127;-78
2021/11/04 03:11:47;;;;;;;7.03;1.05;;;;;;;4.73;83.77;101250.19;5059392;28;20044;-78
2021/11/04 03:14:15;;;;;;;5.00;1.13;;;;;;;4.74;83.95;101251.81;5043728;28;20075;-78
2021/11/04 03:16:45;;;;;;;7.35;1.10;;;;;;;4.77;84.05;101262.19;5050168;28;20073;-78
2021/11/04 03:19:15;;;;;;;4.20;1.63;;;;;;;4.76;83.87;101260.56;5052365;28;20076;-78
2021/11/04 03:21:47;;;;;;;7.47;1.83;;;;;;;4.76;84.34;101258.66;5058699;28;20060;-77
2021/11/04 03:24:20;;;;;;;5.82;0.90;;;;;;;4.79;84.17;101270.97;5057657;28;20071;-78
2021/11/04 03:26:49;;;;;;;;;;;;;;;4.77;84.46;101268.50;5054709;28;20052;-78
2021/11/04 03:29:18;;;;;;;6.93;1.35;;;;;;;4.83;83.97;101263.78;5040448;28;19924;-78
2021/11/04 03:31:48;;;;;;;1.60;0.80;;;;;;;4.84;84.03;101268.16;5057213;28;20119;-78
2021/11/04 03:34:16;;;;;;;2.85;0.63;;;;;;;4.87;84.06;101262.88;5034270;28;20089;-78
2021/11/04 03:36:48;;;;;;;6.90;1.00;;;;;;;4.90;84.41;101266.94;5053892;28;20587;-78
2021/11/04 03:39:19;;;;;;;5.32;0.90;;;;;;;4.95;84.37;101275.13;5054013;28;20072;-78
2021/11/04 03:41:49;;;;;;;5.10;1.13;;;;;;;4.99;84.15;101275.34;5037122;28;20036;-78
2021/11/04 03:44:19;;;;;;;8.52;1.60;;;;;;;5.01;84.38;101282.19;5031156;28;20064;-79
2021/11/04 03:46:47;;;;;;;5.10;0.98;;;;;;;5.04;84.52;101273.34;5034440;28;20073;-78
2021/11/04 03:49:18;;;;;;;2.20;0.60;;;;;;;5.04;84.31;101267.88;5034298;28;20098;-78
2021/11/04 03:51:48;;;;;;;3.38;0.75;;;;;;;5.05;84.35;101275.00;5036394;28;20064;-78
2021/11/04 03:54:17;;;;;;;2.90;0.73;;;;;;;5.05;84.21;101285.97;5036252;28;20049;-78
2021/11/04 03:56:44;;;;;;;5.72;0.80;;;;;;;5.05;84.28;101280.50;5028037;28;20061;-78
2021/11/04 03:59:11;;;;;;;3.05;0.80;;;;;;;5.04;84.52;101276.09;5035576;28;20136;-78
2021/11/04 04:01:38;;;;;;;1.92;0.60;;;;;;;5.06;84.15;101275.78;5033875;28;20072;-77
2021/11/04 04:04:07;;;;;;;5.32;1.05;;;;;;;5.03;84.02;101277.19;5037909;28;20129;-78
2021/11/04 04:06:34;;;;;;;3.92;0.95;;;;;;;5.00;84.20;101277.00;5018272;28;20044;-78
2021/11/04 04:09:04;;;;;;;3.80;0.88;;;;;;;4.97;84.04;101278.41;5033495;28;20064;-79
2021/11/04 04:11:30;;;;;;;5.97;1.10;;;;;;;4.97;84.28;101283.91;5037602;28;20041;-78
2021/11/04 04:13:58;;;;;;;3.78;0.95;;;;;;;5.00;84.33;101282.47;5019838;28;20061;-78
2021/11/04 04:16:25;;;;;;;4.32;0.98;;;;;;;5.00;84.50;101287.97;5037417;28;20108;-78
2021/11/04 04:18:52;;;;;;;1.80;1.00;;;;;;;4.99;84.43;101291.81;5021782;28;20489;-78
2021/11/04 04:21:20;;;;;;;2.00;0.65;;;;;;;5.01;84.34;101301.38;5039803;28;20056;-78
2021/11/04 04:23:47;;;;;;;8.48;1.30;;;;;;;5.04;84.40;101300.78;5039569;28;20128;-78
2021/11/04 04:26:14;;;;;;;5.63;1.25;;;;;;;5.06;84.44;101298.56;5039212;28;20132;-78
2021/11/04 04:28:40;;;;;;;6.40;1.20;;;;;;;5.10;84.80;101302.38;5023245;28;20677;-78
2021/11/04 04:31:07;;;;;;;3.60;0.70;;;;;;;5.12;84.55;101302.88;5038049;28;20129;-78
2021/11/04 04:33:34;;;;;;;2.47;0.85;;;;;;;5.15;84.39;101305.03;5046598;28;20181;-78
2021/11/04 04:36:01;;;;;;;2.20;0.85;;;;;;;5.18;84.47;101312.69;5025230;28;20064;-78
2021/11/04 04:38:28;;;;;;;8.10;1.50;;;;;;;5.20;84.28;101310.47;5046054;28;20484;-78
2021/11/04 04:40:54;;;;;;;4.80;0.60;;;;;;;5.22;84.37;101315.63;5011941;28;20134;-78
2021/11/04 04:43:21;;;;;;;2.53;0.60;;;;;;;5.21;84.35;101317.59;5053301;28;20048;-78
2021/11/04 04:45:49;;;;;;;3.63;0.90;;;;;;;5.22;84.20;101312.91;5063535;28;20147;-78
2021/11/04 04:48:16;;;;;;;4.43;1.27;;;;;;;5.23;84.27;101320.84;5061984;28;20070;-78
2021/11/04 04:50:44;;;;;;;1.25;0.45;;;;;;;5.22;84.15;101313.72;5058715;28;20045;-78
2021/11/04 04:53:11;;;;;;;1.10;0.60;;;;;;;5.21;84.38;101317.59;5046673;28;20144;-79
2021/11/04 04:55:37;;;;;;;5.85;0.88;;;;;;;5.22;84.07;101319.22;5030262;28;20048;-78
2021/11/04 04:58:06;;;;;;;2.95;0.68;;;;;;;5.22;84.11;101323.88;5046821;28;20135;-78
2021/11/04 05:00:36;;;;;;;1.70;0.77;;;;;;;5.23;84.08;101325.53;5052083;28;20055;-78
2021/11/04 05:03:06;;;;;;;2.15;0.55;;;;;;;5.24;84.31;101330.69;5040212;28;20045;-78
2021/11/04 05:05:33;;;;;;;2.75;0.40;;;;;;;5.28;84.55;101325.44;5028370;28;20036;-77
2021/11/04 05:08:00;;;;;;;3.38;0.75;;;;;;;5.29;84.01;101335.34;5027682;28;20041;-78
2021/11/04 05:10:26;;;;;;;3.50;0.80;;;;;;;5.30;84.28;101340.50;5046387;28;20044;-78
2021/11/04 05:12:53;;;;;;;4.38;0.65;;;;;;;5.33;84.18;101337.19;5042528;28;20199;-78
2021/11/04 05:15:20;;;;;;;3.67;0.45;;;;;;;5.33;83.89;101328.94;5063814;28;20131;-78
2021/11/04 05:17:47;;;;;;;1.65;0.60;;;;;;;5.32;84.06;101342.97;5062611;28;20036;-78
2021/11/04 05:20:16;;;;;;;4.53;0.60;;;;;;;5.31;84.30;101344.91;5063105;28;20052;-78
2021/11/04 05:22:43;;;;;;;1.33;0.47;;;;;;;5.31;83.97;101350.41;5061799;28;20484;-78
2021/11/04 05:25:11;;;;;;;1.17;0.57;;;;;;;5.32;84.02;101360.25;5065456;28;20041;-78
2021/11/04 05:27:37;;;;;;;4.68;0.85;;;;;;;5.34;83.72;101349.81;5062538;28;20700;-78
2021/11/04 05:30:05;;;;;;;1.80;0.50;;;;;;;5.36;84.08;101360.47;5063345;28;20072;-78
2021/11/04 05:32:32;;;;;;;1.00;0.47;;;;;;;5.35;83.71;101354.16;5064726;28;20062;-78
2021/11/04 05:34:59;;;;;;;1.95;0.50;;;;;;;5.36;83.83;101363.22;5055925;28;20036;-78
2021/11/04 05:37:26;;;;;;;5.38;1.00;;;;;;;5.34;83.66;101357.22;5037267;28;20580;-78
2021/11/04 05:39:53;;;;;;;1.65;0.47;;;;;;;5.33;83.91;101364.63;5056765;28;20132;-78
2021/11/04 05:42:19;;;;;;;4.43;0.80;;;;;;;5.33;84.12;101364.63;5022541;28;20472;-78
2021/11/04 05:44:46;;;;;;;3.53;1.25;;;;;;;5.34;84.02;101377.25;5044777;28;20056;-78
2021/11/04 05:47:13;;;;;;;0.82;0.22;;;;;;;5.36;83.70;101369.53;5038127;28;20130;-78
2021/11/04 05:49:40;;;;;;;1.45;0.70;;;;;;;5.36;84.03;101380.53;5040302;28;20038;-78
2021/11/04 05:52:07;;;;;;;0.95;0.45;;;;;;;5.39;84.12;101382.69;5041075;28;20144;-78
2021/11/04 05:54:34;;;;;;;2.80;0.40;;;;;;;5.40;84.10;101387.03;5045868;28;20044;-78
2021/11/04 05:57:02;;;;;;;16.85;3.40;;;;;;;5.42;83.95;101373.84;5026702;28;20107;-78
2021/11/04 05:59:29;;;;;;;5.32;0.85;;;;;;;5.43;84.05;101378.22;5026172;28;20086;-78
2021/11/04 06:01:56;;;;;;;3.35;0.68;;;;;;;5.42;84.02;101384.03;5037698;28;20068;-78
2021/11/04 06:04:23;;;;;;;6.82;0.57;;;;;;;5.44;84.12;101371.63;5041494;28;20084;-78
2021/11/04 06:06:50;;;;;;;2.95;0.85;;;;;;;5.41;83.78;101372.22;5020202;28;20046;-78
2021/11/04 06:09:17;;;;;;;1.83;0.50;;;;;;;5.38;83.86;101386.53;5041827;28;20045;-78
2021/11/04 06:11:43;;;;;;;2.97;0.60;;;;;;;5.36;84.13;101388.75;5039217;28;20043;-78
2021/11/04 06:14:10;;;;;;;4.10;0.95;;;;;;;5.37;83.83;101382.16;5042393;28;20511;-78
2021/11/04 06:16:37;;;;;;;2.65;0.40;;;;;;;5.38;84.00;101388.44;5042535;28;20076;-78
2021/11/04 06:19:04;;;;;;;2.35;0.70;;;;;;;5.35;83.89;101384.38;5042219;28;20045;-78
2021/11/04 06:21:31;;;;;;;3.75;0.52;;;;;;;5.34;84.00;101391.00;5044566;28;20061;-78
2021/11/04 06:23:57;;;;;;;6.18;0.47;;;;;;;5.35;84.11;101392.59;5037179;28;20068;-79
2021/11/04 06:26:25;;;;;;;0.77;0.47;;;;;;;5.34;83.82;101391.00;5022698;28;20032;-78
2021/11/04 06:28:56;;;;;;;3.35;0.52;;;;;;;5.32;83.54;101389.66;5042066;28;20123;-78
2021/11/04 06:31:23;;;;;;;0.93;0.30;;;;;;;5.30;83.88;101387.19;5045100;28;20088;-78
2021/11/04 06:33:49;;;;;;;3.80;1.20;;;;;;;5.29;83.89;101396.56;5042607;28;20140;-78
2021/11/04 06:36:16;;;;;;;2.15;0.70;;;;;;;5.31;84.08;101404.47;5038711;28;20133;-78
2021/11/04 06:38:43;;;;;;;4.47;0.85;;;;;;;5.29;84.11;101401.22;5024702;28;20049;-78
2021/11/04 06:41:10;;;;;;;3.13;1.30;;;;;;;5.31;84.38;101399.81;5039098;28;20045;-78
2021/11/04 06:43:37;;;;;;;3.90;0.70;;;;;;;5.32;83.86;101389.66;5042881;28;20056;-78
2021/11/04 06:46:04;;;;;;;5.00;0.50;;;;;;;5.30;84.32;101400.91;5059237;28;20079;-78
2021/11/04 06:48:34;;;;;;;2.38;0.65;;;;;;;5.32;84.47;101401.44;5056430;28;20132;-78
2021/11/04 06:51:02;;;;;;;2.28;0.88;;;;;;;5.34;83.91;101412.94;5024644;28;20036;-78
2021/11/04 06:53:29;;;;;;;4.00;0.70;;;;;;;5.36;84.19;101415.41;5060938;28;20098;-78
2021/11/04 06:56:00;;;;;;;2.75;0.50;;;;;;;5.36;83.99;101413.47;5050977;28;20036;-78
2021/11/04 06:58:30;;;;;;;5.95;1.70;;;;;;;5.37;84.20;101420.59;5051060;28;20044;-78
2021/11/04 07:01:07;;;;;;;1.38;0.40;;;;;;;5.39;83.95;101423.03;5038164;28;20611;-78
2021/11/04 07:03:42;;;;;;;1.17;0.40;;;;;;;5.42;84.07;101425.22;5058851;28;20416;-78
2021/11/04 07:06:11;;;;;;;4.38;0.65;;;;;;;5.43;84.25;101432.31;5060239;28;20045;-78
2021/11/04 07:08:44;;;;;;;3.78;1.13;;;;;;;5.42;84.10;101431.53;5045508;28;20063;-78
2021/11/04 07:11:15;;;;;;;2.13;0.80;;;;;;;5.42;84.21;101441.69;5061860;28;20048;-78
2021/11/04 07:13:46;;;;;;;6.70;1.02;;;;;;;5.42;84.02;101444.44;5030339;28;20106;-78
2021/11/04 07:16:15;;;;;;;9.10;1.77;;;;;;;5.41;84.41;101442.78;5040586;28;20068;-78
2021/11/04 07:18:42;;;;;;;4.25;0.60;;;;;;;5.44;84.33;101453.19;5056241;28;20079;-78
2021/11/04 07:21:17;;;;;;;4.25;0.80;;;;;;;5.45;84.27;101452.88;5033904;28;20076;-78
2021/11/04 07:24:04;;;;;;;4.13;0.70;;;;;;;5.46;84.42;101453.69;5059401;28;20096;-78
2021/11/04 07:26:37;;;;;;;3.60;0.57;;;;;;;5.46;84.24;101456.44;5043612;28;20550;-78
2021/11/04 07:29:06;;;;;;;1.98;1.25;;;;;;;5.46;84.15;101465.50;5056693;28;20094;-78
2021/11/04 07:31:35;;;;;;;3.30;0.88;;;;;;;5.47;84.01;101467.16;5058121;28;20040;-78
2021/11/04 07:34:11;;;;;;;6.03;0.65;;;;;;;5.48;84.13;101477.00;5047328;28;20077;-78
2021/11/04 07:36:40;;;;;;;3.85;0.70;;;;;;;5.49;84.26;101473.16;5040232;28;20120;-78
2021/11/04 07:39:08;;;;;;;7.85;1.10;;;;;;;5.50;84.36;101484.97;5059621;28;21487;-78
2021/11/04 07:41:35;;;;;;;2.05;0.77;;;;;;;5.52;83.99;101478.06;5031943;28;20047;-79
2021/11/04 07:44:04;;;;;;;6.07;1.25;;;;;;;5.57;84.09;101479.09;5061306;28;20393;-78
2021/11/04 07:46:32;;;;;;;5.22;1.08;;;;;;;5.56;84.03;101478.28;5042579;28;20072;-78
2021/11/04 07:49:00;;;;;;;3.30;1.00;;;;;;;5.57;83.80;101473.63;5056821;28;20076;-78
2021/11/04 07:51:27;;;;;;;5.88;1.15;;;;;;;5.57;83.65;101485.44;5059075;28;20041;-78
2021/11/04 07:53:56;;;;;;;2.42;0.80;;;;;;;5.60;83.98;101482.09;5044861;28;20072;-78
2021/11/04 07:56:23;;;;;;;8.10;1.30;;;;;;;5.63;83.73;101483.44;5058274;28;20044;-78
2021/11/04 07:58:50;;;;;;;10.52;1.77;;;;;;;5.66;83.71;101488.34;5058400;28;20369;-78
2021/11/04 08:01:17;;;;;;;2.97;1.40;;;;;;;5.69;83.59;101493.25;5060850;28;20064;-78
2021/11/04 08:03:46;;;;;;;5.53;2.35;;;;;;;5.68;83.26;101497.09;5029676;28;20036;-78
2021/11/04 08:06:14;;;;;;;5.75;1.65;;;;;;;5.71;83.25;101496.50;5060904;28;20516;-78
2021/11/04 08:08:41;;;;;;;2.35;1.17;;;;;;;5.73;83.59;101505.28;5064769;28;20041;-78
2021/11/04 08:11:08;;;;;;;1.92;0.82;;;;;;;5.78;83.64;101496.97;5041060;28;20112;-78
2021/11/04 08:13:35;;;;;;;5.38;0.95;;;;;;;5.85;83.60;101494.72;5042112;28;20128;-78
2021/11/04 08:16:02;;;;;;;6.90;1.10;;;;;;;5.88;83.54;101503.16;5053254;28;20053;-78
2021/11/04 08:18:29;;;;;;;5.88;1.00;;;;;;;5.92;83.04;101506.16;5059162;28;20080;-79
2021/11/04 08:20:55;;;;;;;6.25;1.40;;;;;;;5.97;83.29;101508.84;5062487;28;20037;-79
2021/11/04 08:23:23;;;;;;;4.55;0.73;;;;;;;6.00;83.14;101516.50;5057531;28;20049;-80
2021/11/04 08:25:49;;;;;;;2.13;1.00;;;;;;;6.04;82.99;101525.75;5054022;28;20071;-80
2021/11/04 08:28:16;;;;;;;3.45;1.25;;;;;;;6.09;83.01;101525.69;5057103;28;20052;-78
2021/11/04 08:30:43;;;;;;;8.57;1.15;;;;;;;6.11;82.97;101529.00;5055799;28;20121;-79
2021/11/04 08:33:10;;;;;;;7.28;1.33;;;;;;;6.16;82.82;101526.16;5061149;28;20647;-79
2021/11/04 08:35:38;;;;;;;3.28;0.90;;;;;;;6.17;82.59;101521.50;5035817;28;20095;-79
2021/11/04 08:38:05;;;;;;;5.57;0.82;;;;;;;6.13;82.40;101535.00;5050224;28;20068;-79
2021/11/04 08:40:32;;;;;;;3.42;0.90;;;;;;;6.11;82.51;101535.31;5061936;28;20120;-79
2021/11/04 08:43:02;;;;;;;10.07;1.65;;;;;;;6.15;82.28;101530.00;5066457;28;20057;-79
2021/11/04 08:45:29;;;;;;;2.75;0.60;;;;;;;6.16;81.96;101526.16;5036612;28;20743;-80
2021/11/04 08:47:56;;;;;;;3.50;1.13;;;;;;;6.16;81.98;101542.66;5060378;28;20057;-78
2021/11/04 08:50:23;;;;;;;3.85;0.70;;;;;;;6.15;81.60;101554.75;5048197;28;20048;-78
2021/11/04 08:52:52;;;;;;;10.25;1.13;;;;;;;6.12;81.42;101547.09;5046834;28;20048;-78
2021/11/04 08:55:21;;;;;;;4.60;1.55;;;;;;;6.05;81.27;101543.91;5065690;28;20052;-79
2021/11/04 08:57:51;;;;;;;3.67;0.80;;;;;;;6.08;81.64;101557.06;5046493;28;20075;-79
2021/11/04 09:00:19;;;;;;;3.20;0.90;;;;;;;6.10;81.59;101549.34;5030765;28;20079;-78
2021/11/04 09:02:47;;;;;;;6.78;0.70;;;;;;;6.15;81.31;101557.50;5050583;28;20051;-79
2021/11/04 09:05:14;;;;;;;3.40;0.70;;;;;;;6.25;81.51;101556.56;5041331;28;20044;-79
2021/11/04 09:07:41;;;;;;;4.53;0.93;;;;;;;6.32;81.12;101549.56;5056161;28;20136;-79
2021/11/04 09:10:09;;;;;;;7.70;0.98;;;;;;;6.31;81.01;101556.19;5029821;28;20048;-79
2021/11/04 09:12:37;;;;;;;5.05;0.80;;;;;;;6.34;80.87;101560.28;5063032;28;20076;-79
2021/11/04 09:15:06;;;;;;;4.90;1.10;;;;;;;6.35;80.58;101568.25;5057640;28;20132;-79
2021/11/04 09:17:32;;;;;;;7.10;2.10;;;;;;;6.37;80.44;101571.50;5061242;28;20123;-79
2021/11/04 09:19:59;;;;;;;8.07;1.02;;;;;;;6.38;80.55;101572.31;5064752;28;20095;-79
2021/11/04 09:22:26;;;;;;;6.78;0.95;;;;;;;6.42;80.70;101563.19;5063136;28;20059;-79
2021/11/04 09:24:54;;;;;;;5.60;1.05;;;;;;;6.44;80.35;101569.19;5055906;28;20519;-79
2021/11/04 09:27:20;;;;;;;12.52;3.90;;;;;;;6.43;80.11;101569.50;5062813;28;20448;-78
2021/11/04 09:29:48;;;;;;;4.22;1.02;;;;;;;6.40;80.08;101573.66;5063594;28;20484;-79
2021/11/04 09:32:15;;;;;;;4.63;1.02;;;;;;;6.44;80.37;101568.38;5061956;28;20068;-79
2021/11/04 09:34:59;;;;;;;5.97;0.90;;;;;;;6.49;80.26;101568.28;5060058;28;20040;-79
2021/11/04 09:37:26;;;;;;;4.88;1.02;;;;;;;6.51;80.16;101566.06;5043682;28;20503;-79
2021/11/04 09:39:53;;;;;;;5.90;0.80;;;;;;;6.49;80.25;101574.63;5047421;28;20060;-79
2021/11/04 09:42:24;;;;;;;3.38;1.08;;;;;;;6.49;79.64;101574.63;5063282;28;20076;-79
2021/11/04 09:44:53;;;;;;;7.97;1.10;;;;;;;6.47;79.52;101581.53;5062071;28;20040;-79
2021/11/04 09:47:25;;;;;;;6.22;1.10;;;;;;;6.44;79.51;101571.13;5061472;28;20718;-79
2021/11/04 09:49:53;;;;;;;;;;;;;;;6.41;79.19;101578.03;5044363;28;20098;-79
2021/11/04 09:52:27;;;;;;;4.03;1.40;;;;;;;6.43;79.89;101589.56;5062864;28;20557;-79
2021/11/04 09:55:00;;;;;;;10.52;1.80;;;;;;;6.46;79.71;101586.19;5060631;28;20055;-79
2021/11/04 09:57:27;;;;;;;12.10;1.50;;;;;;;6.43;79.25;101586.81;5060205;28;20085;-79
2021/11/04 09:59:55;;;;;;;6.28;2.13;;;;;;;6.46;79.17;101590.91;5063629;28;20044;-79
2021/11/04 10:02:27;;;;;;;9.85;2.13;;;;;;;6.54;79.38;101604.78;5057101;28;20040;-79
2021/11/04 10:05:06;;;;;;;6.65;1.23;;;;;;;6.66;78.96;101618.94;5042653;28;20098;-79
2021/11/04 10:07:47;;;;;;;5.47;1.23;;;;;;;6.78;78.88;101612.19;5045697;28;20041;-79
2021/11/04 10:10:16;;;;;;;8.60;1.00;;;;;;;6.86;79.13;101614.25;5060863;28;20059;-79
2021/11/04 10:13:06;;;;;;;7.55;1.55;;;;;;;6.95;78.77;101617.94;5054509;28;20299;-79
2021/11/04 10:15:35;;;;;;;6.28;2.67;;;;;;;6.98;78.30;101615.41;5059986;28;20104;-79
2021/11/04 10:18:21;;;;;;;12.05;2.42;;;;;;;7.02;78.12;101605.44;5061701;28;20093;-79
2021/11/04 10:20:58;;;;;;;6.72;1.08;;;;;;;7.11;78.48;101611.91;5060563;28;20045;-79
2021/11/04 10:23:35;;;;;;;6.72;1.00;;;;;;;7.20;78.58;101606.53;5053674;28;20029;-79
2021/11/04 10:26:04;;;;;;;6.45;1.05;;;;;;;7.22;77.96;101607.84;5061286;28;20084;-79
2021/11/04 10:28:32;;;;;;;8.20;1.38;;;;;;;7.17;77.90;101607.13;5045595;28;20040;-79
2021/11/04 10:30:59;;;;;;;5.75;1.48;;;;;;;7.04;77.72;101608.69;5029883;28;20067;-79
2021/11/04 10:33:34;;;;;;;4.35;1.20;;;;;;;6.95;77.56;101609.69;5060753;28;20080;-79
2021/11/04 10:36:07;;;;;;;6.10;0.80;;;;;;;6.92;77.46;101600.09;5061298;28;20080;-79
2021/11/04 10:38:45;;;;;;;5.45;0.88;;;;;;;6.92;77.66;101602.03;5061747;28;20044;-79
2021/11/04 10:41:28;;;;;;;9.18;1.60;;;;;;;6.93;77.44;101603.66;5059912;28;20102;-79
2021/11/04 10:43:58;;;;;;;7.75;2.65;;;;;;;6.95;77.47;101609.69;5062235;28;20087;-79
2021/11/04 10:46:25;;;;;;;7.63;1.58;;;;;;;6.97;77.79;101607.44;5058554;28;20044;-79
2021/11/04 10:49:00;;;;;;;8.18;1.30;;;;;;;6.97;77.25;101605.50;5044997;28;20047;-79
2021/11/04 10:51:28;;;;;;;4.20;1.10;;;;;;;7.01;77.34;101603.81;5056709;28;20110;-79
2021/11/04 10:54:05;;;;;;;9.02;2.38;;;;;;;7.04;77.14;101610.66;5053425;28;20075;-79
2021/11/04 10:56:41;;;;;;;9.95;1.98;;;;;;;7.05;76.66;101604.81;5055225;28;20083;-79
2021/11/04 10:59:18;;;;;;;12.73;2.17;;;;;;;7.08;76.29;101597.91;5041857;28;20129;-79
2021/11/04 11:01:48;;;;;;;8.65;1.60;;;;;;;7.11;76.22;101603.63;5041881;28;20062;-79
2021/11/04 11:04:31;;;;;;;8.80;1.33;;;;;;;7.13;76.49;101600.56;5062257;28;20044;-79
2021/11/04 11:06:58;;;;;;;7.97;1.40;;;;;;;7.16;76.52;101594.47;5058562;28;20053;-79
2021/11/04 11:09:27;;;;;;;5.18;1.60;;;;;;;7.16;76.41;101583.44;5043979;28;20127;-79
2021/11/04 11:12:05;;;;;;;5.45;1.58;;;;;;;7.17;76.05;101590.59;5054892;28;20094;-79
2021/11/04 11:14:35;;;;;;;11.25;3.13;;;;;;;7.18;75.93;101597.72;5056481;28;20068;-79
2021/11/04 11:17:03;;;;;;;7.85;1.70;;;;;;;7.19;76.06;101591.94;5061718;28;20139;-79
2021/11/04 11:19:39;;;;;;;7.63;1.95;;;;;;;7.22;75.32;101599.59;5046008;28;20404;-79
2021/11/04 11:22:07;;;;;;;9.00;2.17;;;;;;;7.28;75.88;101598.38;5057723;28;20045;-78
2021/11/04 11:24:40;;;;;;;8.75;1.45;;;;;;;7.31;75.41;101599.69;5045681;28;20469;-79
2021/11/04 11:27:15;;;;;;;9.05;2.75;;;;;;;7.34;75.51;101588.06;5044723;28;20056;-78
2021/11/04 11:29:44;;;;;;;4.45;1.05;;;;;;;7.39;75.21;101600.97;5059751;28;20044;-79
2021/11/04 11:32:22;;;;;;;5.80;0.98;;;;;;;7.40;75.10;101597.88;5057296;28;20507;-79
2021/11/04 11:34:50;;;;;;;4.65;1.17;;;;;;;7.45;75.32;101589.53;5061186;28;20081;-79
2021/11/04 11:37:23;;;;;;;6.28;1.73;;;;;;;7.47;74.72;101594.72;5044709;28;20083;-79
2021/11/04 11:40:09;;;;;;;6.45;1.95;;;;;;;7.53;74.94;101590.75;5061530;28;20110;-79
2021/11/04 11:42:36;;;;;;;8.15;1.40;;;;;;;7.55;74.61;101597.59;5063239;28;20087;-79